createdAt,value
2022-09-18T00:01:11.843Z,13.96
2022-09-18T00:03:39.777Z,13.71
2022-09-18T00:06:11.798Z,13.66
2022-09-18T00:08:40.055Z,13.82
2022-09-18T00:11:09.704Z,13.77
2022-09-18T00:13:39.191Z,13.65
2022-09-18T00:16:09.083Z,13.57
2022-09-18T00:18:36.948Z,13.34
2022-09-18T00:21:06.221Z,13.48
2022-09-18T00:23:36.168Z,13.76
2022-09-18T00:26:04.569Z,13.87
2022-09-18T00:28:32.726Z,13.77
2022-09-18T00:31:05.742Z,13.13
2022-09-18T00:33:33.777Z,13.02
2022-09-18T00:36:03.042Z,12.95
2022-09-18T00:38:32.741Z,13.01
2022-09-18T00:41:03.459Z,13.07
2022-09-18T00:43:34.777Z,13.06
2022-09-18T00:46:06.543Z,13.38
2022-09-18T00:48:41.504Z,13.32
2022-09-18T00:51:09.929Z,13.75
2022-09-18T00:53:41.740Z,13.81
2022-09-18T00:56:15.893Z,13.46
2022-09-18T00:58:44.696Z,13.08
2022-09-18T01:01:12.750Z,13.17
2022-09-18T01:03:40.465Z,12.75
2022-09-18T01:09:09.345Z,13.15
2022-09-18T01:11:48.104Z,12.93
2022-09-18T01:14:28.999Z,13.28
2022-09-18T01:17:03.939Z,12.79
2022-09-18T01:19:45.228Z,12.55
2022-09-18T01:22:33.025Z,12.51
2022-09-18T01:25:19.039Z,13.78
2022-09-18T01:28:17.681Z,13.58
2022-09-18T01:30:49.784Z,14.08
2022-09-18T01:33:25.979Z,13.71
2022-09-18T01:35:58.350Z,14.04
2022-09-18T01:38:31.432Z,13.74
2022-09-18T01:41:03.847Z,13.68
2022-09-18T01:43:34.144Z,13.56
2022-09-18T01:46:08.100Z,13.53
2022-09-18T01:48:41.950Z,13.46
2022-09-18T01:51:15.136Z,13.47
2022-09-18T01:53:46.184Z,13.65
2022-09-18T01:56:19.148Z,13.87
2022-09-18T01:58:52.929Z,13.35
2022-09-18T02:01:23.443Z,13.85
2022-09-18T02:03:57.479Z,13.73
2022-09-18T02:06:30.130Z,13.78
2022-09-18T02:09:00.833Z,13.96
2022-09-18T02:11:28.988Z,13.51
2022-09-18T02:14:05.601Z,13.58
2022-09-18T02:16:36.309Z,13.45
2022-09-18T02:19:08.976Z,13.55
2022-09-18T02:21:38.061Z,13.83
2022-09-18T02:24:10.031Z,13.78
2022-09-18T02:26:43.438Z,13.27
2022-09-18T02:29:14.873Z,13.47
2022-09-18T02:31:42.675Z,13.34
2022-09-18T02:34:13.290Z,13.34
2022-09-18T02:37:02.705Z,12.90
2022-09-18T02:39:57.422Z,13.13
2022-09-18T02:42:41.157Z,12.87
2022-09-18T02:45:20.689Z,13.09
2022-09-18T02:48:06.527Z,12.85
2022-09-18T02:50:41.657Z,12.93
2022-09-18T02:53:14.733Z,13.29
2022-09-18T02:55:47.215Z,13.00
2022-09-18T02:58:22.821Z,12.58
2022-09-18T03:00:53.065Z,12.53
2022-09-18T03:03:20.833Z,12.85
2022-09-18T03:05:48.543Z,12.63
2022-09-18T03:08:16.649Z,12.81
2022-09-18T03:10:44.320Z,12.73
2022-09-18T03:13:13.288Z,12.81
2022-09-18T03:15:41.304Z,12.75
2022-09-18T03:18:10.340Z,12.59
2022-09-18T03:20:38.051Z,12.78
2022-09-18T03:23:05.744Z,12.45
2022-09-18T03:25:33.467Z,12.77
2022-09-18T03:28:01.145Z,12.68
2022-09-18T03:30:28.877Z,12.80
2022-09-18T03:32:56.561Z,12.68
2022-09-18T03:35:25.684Z,12.68
2022-09-18T03:37:54.917Z,13.02
2022-09-18T03:40:22.777Z,13.24
2022-09-18T03:42:50.795Z,12.74
2022-09-18T03:45:18.680Z,12.49
2022-09-18T03:47:46.757Z,12.57
2022-09-18T03:50:15.059Z,12.59
2022-09-18T03:52:46.650Z,12.86
2022-09-18T03:55:21.171Z,13.00
2022-09-18T03:57:49.149Z,12.75
2022-09-18T04:00:17.255Z,12.63
2022-09-18T04:02:45.373Z,12.81
2022-09-18T04:05:13.142Z,12.76
2022-09-18T04:07:40.895Z,13.00
2022-09-18T04:10:10.519Z,12.96
2022-09-18T04:12:38.284Z,13.33
2022-09-18T04:15:06.703Z,12.85
2022-09-18T04:17:34.426Z,13.16
2022-09-18T04:20:02.319Z,13.28
2022-09-18T04:22:30.062Z,13.59
2022-09-18T04:24:57.815Z,13.16
2022-09-18T04:27:26.918Z,13.39
2022-09-18T04:29:54.639Z,13.35
2022-09-18T04:32:22.448Z,13.79
2022-09-18T04:34:50.113Z,13.32
2022-09-18T04:37:17.786Z,13.04
2022-09-18T04:39:49.682Z,12.91
2022-09-18T04:42:17.417Z,12.99
2022-09-18T04:44:47.268Z,12.67
2022-09-18T04:47:15.122Z,12.70
2022-09-18T04:49:42.863Z,12.68
2022-09-18T04:52:10.641Z,13.06
2022-09-18T04:54:38.503Z,13.08
2022-09-18T04:57:06.369Z,12.86
2022-09-18T04:59:34.107Z,12.74
2022-09-18T05:02:03.364Z,12.88
2022-09-18T05:04:31.495Z,12.98
2022-09-18T05:06:59.191Z,12.75
2022-09-18T05:09:26.917Z,12.85
2022-09-18T05:11:55.012Z,13.01
2022-09-18T05:14:22.722Z,12.85
2022-09-18T05:16:50.423Z,12.87
2022-09-18T05:19:19.502Z,12.89
2022-09-18T05:21:50.060Z,12.89
2022-09-18T05:24:18.477Z,13.05
2022-09-18T05:26:46.244Z,13.03
2022-09-18T05:29:14.512Z,12.97
2022-09-18T05:31:42.887Z,12.99
2022-09-18T05:34:10.643Z,12.90
2022-09-18T05:36:39.673Z,12.98
2022-09-18T05:39:07.396Z,12.96
2022-09-18T05:41:35.223Z,12.88
2022-09-18T05:44:03.438Z,12.98
2022-09-18T05:46:31.138Z,12.84
2022-09-18T05:48:59.823Z,13.00
2022-09-18T05:51:27.527Z,13.16
2022-09-18T05:53:56.581Z,12.91
2022-09-18T05:56:24.363Z,12.93
2022-09-18T05:58:52.060Z,13.17
2022-09-18T06:01:19.813Z,12.96
2022-09-18T06:03:50.370Z,13.16
2022-09-18T06:06:18.469Z,13.19
2022-09-18T06:08:46.125Z,13.27
2022-09-18T06:11:15.568Z,13.72
2022-09-18T06:13:44.464Z,13.29
2022-09-18T06:16:12.227Z,13.52
2022-09-18T06:18:43.328Z,13.42
2022-09-18T06:21:14.980Z,13.97
2022-09-18T06:23:43.087Z,13.60
2022-09-18T06:26:14.733Z,13.74
2022-09-18T06:28:44.237Z,13.90
2022-09-18T06:31:12.200Z,13.38
2022-09-18T06:33:39.939Z,13.74
2022-09-18T06:36:13.971Z,13.93
2022-09-18T06:38:51.544Z,14.00
2022-09-18T06:41:19.882Z,13.80
2022-09-18T06:43:50.233Z,13.67
2022-09-18T06:46:18.256Z,13.88
2022-09-18T06:48:46.016Z,13.74
2022-09-18T06:51:13.749Z,13.72
2022-09-18T06:53:41.409Z,13.80
2022-09-18T06:56:09.128Z,13.68
2022-09-18T06:58:36.812Z,13.50
2022-09-18T07:01:06.147Z,13.70
2022-09-18T07:03:33.859Z,13.62
2022-09-18T07:06:01.577Z,14.10
2022-09-18T07:08:30.626Z,14.13
2022-09-18T07:11:01.433Z,14.75
2022-09-18T07:13:31.436Z,14.25
2022-09-18T07:15:59.570Z,14.15
2022-09-18T07:18:28.642Z,14.32
2022-09-18T07:20:56.370Z,14.43
2022-09-18T07:23:24.277Z,14.49
2022-09-18T07:25:51.971Z,14.12
2022-09-18T07:28:19.784Z,13.63
2022-09-18T07:30:47.600Z,14.54
2022-09-18T07:33:15.303Z,14.65
2022-09-18T07:35:44.385Z,14.20
2022-09-18T07:38:12.056Z,14.10
2022-09-18T07:40:41.243Z,14.04
2022-09-18T07:43:10.612Z,14.41
2022-09-18T07:45:38.935Z,14.13
2022-09-18T07:48:08.570Z,13.81
2022-09-18T07:50:36.375Z,13.79
2022-09-18T07:53:05.947Z,14.16
2022-09-18T07:55:36.685Z,14.00
2022-09-18T07:58:06.417Z,13.65
2022-09-18T08:00:36.697Z,14.12
2022-09-18T08:03:05.225Z,13.90
2022-09-18T08:05:33.182Z,14.42
2022-09-18T08:08:06.206Z,14.45
2022-09-18T08:10:35.542Z,15.23
2022-09-18T08:13:03.778Z,15.16
2022-09-18T08:15:31.777Z,15.63
2022-09-18T08:17:59.578Z,16.18
2022-09-18T08:20:27.276Z,16.52
2022-09-18T08:22:54.991Z,16.31
2022-09-18T08:25:24.056Z,15.08
2022-09-18T08:27:52.025Z,14.56
2022-09-18T08:30:20.218Z,14.57
2022-09-18T08:32:47.919Z,14.14
2022-09-18T08:35:15.632Z,14.51
2022-09-18T08:37:49.561Z,14.51
2022-09-18T08:40:19.736Z,14.94
2022-09-18T08:43:06.290Z,15.34
2022-09-18T08:45:46.134Z,15.10
2022-09-18T08:48:18.790Z,14.80
2022-09-18T08:50:56.066Z,15.03
2022-09-18T08:53:31.499Z,15.30
2022-09-18T08:56:01.373Z,16.06
2022-09-18T08:58:36.445Z,17.25
2022-09-18T09:01:09.179Z,16.74
2022-09-18T09:03:47.806Z,17.47
2022-09-18T09:06:29.609Z,17.35
2022-09-18T09:09:21.530Z,17.42
2022-09-18T09:11:56.928Z,15.90
2022-09-18T09:14:56.508Z,17.30
2022-09-18T09:17:39.792Z,17.82
2022-09-18T09:20:21.405Z,18.74
2022-09-18T09:23:03.463Z,18.12
2022-09-18T09:25:39.275Z,17.99
2022-09-18T09:28:16.833Z,17.36
2022-09-18T09:30:56.607Z,18.21
2022-09-18T09:33:37.609Z,18.22
2022-09-18T09:36:14.322Z,17.59
2022-09-18T09:38:50.069Z,18.58
2022-09-18T09:41:30.396Z,17.68
2022-09-18T09:44:13.589Z,18.82
2022-09-18T09:46:53.105Z,17.71
2022-09-18T09:49:26.733Z,16.93
2022-09-18T09:52:10.829Z,17.13
2022-09-18T09:54:39.194Z,16.62
2022-09-18T09:57:24.680Z,17.10
2022-09-18T10:00:05.027Z,17.15
2022-09-18T10:02:51.343Z,16.93
2022-09-18T10:05:26.593Z,16.38
2022-09-18T10:08:02.448Z,16.25
2022-09-18T10:10:38.560Z,15.87
2022-09-18T10:13:13.448Z,17.87
2022-09-18T10:15:44.133Z,17.75
2022-09-18T10:18:17.636Z,16.98
2022-09-18T10:20:47.276Z,18.48
2022-09-18T10:23:25.430Z,17.27
2022-09-18T10:25:57.895Z,16.47
2022-09-18T10:28:29.420Z,16.66
2022-09-18T10:31:02.475Z,16.76
2022-09-18T10:33:37.522Z,18.05
2022-09-18T10:36:16.177Z,18.08
2022-09-18T10:38:44.140Z,17.58
2022-09-18T10:41:19.311Z,16.67
2022-09-18T10:43:57.681Z,19.30
2022-09-18T10:46:31.098Z,19.03
2022-09-18T10:49:05.035Z,20.07
2022-09-18T10:51:32.755Z,18.63
2022-09-18T10:54:06.625Z,18.99
2022-09-18T10:56:34.398Z,18.29
2022-09-18T10:59:30.165Z,17.62
2022-09-18T11:01:58.928Z,16.38
2022-09-18T11:04:30.527Z,18.17
2022-09-18T11:06:58.961Z,19.31
2022-09-18T11:09:32.933Z,19.23
2022-09-18T11:12:01.104Z,20.41
2022-09-18T11:14:32.264Z,20.04
2022-09-18T11:17:02.070Z,18.60
2022-09-18T11:19:35.164Z,19.39
2022-09-18T11:22:06.638Z,19.92
2022-09-18T11:24:36.795Z,19.38
2022-09-18T11:27:20.191Z,19.43
2022-09-18T11:29:48.007Z,21.63
2022-09-18T11:32:20.059Z,22.33
2022-09-18T11:34:51.966Z,22.35
2022-09-18T11:37:29.853Z,20.89
2022-09-18T11:40:02.089Z,20.18
2022-09-18T11:42:31.537Z,21.45
2022-09-18T11:45:17.219Z,20.52
2022-09-18T11:47:51.142Z,19.07
2022-09-18T11:50:22.983Z,17.27
2022-09-18T11:52:55.358Z,18.42
2022-09-18T11:55:30.369Z,19.16
2022-09-18T11:58:02.636Z,19.15
2022-09-18T12:00:35.675Z,18.97
2022-09-18T12:03:14.736Z,19.92
2022-09-18T12:05:53.485Z,19.88
2022-09-18T12:08:28.088Z,19.55
2022-09-18T12:11:08.139Z,19.82
2022-09-18T12:13:48.443Z,18.82
2022-09-18T12:16:21.766Z,19.80
2022-09-18T12:18:58.964Z,18.28
2022-09-18T12:21:37.459Z,17.64
2022-09-18T12:24:13.101Z,17.37
2022-09-18T12:26:49.607Z,16.89
2022-09-18T12:29:36.122Z,17.24
2022-09-18T12:32:18.596Z,19.69
2022-09-18T12:34:52.342Z,17.67
2022-09-18T12:37:38.253Z,18.68
2022-09-18T12:40:36.907Z,18.96
2022-09-18T12:43:33.486Z,18.44
2022-09-18T12:46:21.280Z,17.76
2022-09-18T12:49:05.907Z,16.52
2022-09-18T12:51:43.143Z,17.09
2022-09-18T12:54:42.766Z,19.42
2022-09-18T12:57:28.039Z,18.22
2022-09-18T13:00:00.563Z,17.13
2022-09-18T13:02:47.104Z,16.25
2022-09-18T13:05:22.899Z,15.95
2022-09-18T13:07:56.284Z,15.86
2022-09-18T13:10:28.939Z,15.80
2022-09-18T13:13:01.472Z,16.62
2022-09-18T13:15:34.710Z,18.08
2022-09-18T13:18:17.326Z,19.32
2022-09-18T13:20:46.750Z,20.40
2022-09-18T13:23:18.836Z,18.26
2022-09-18T13:25:50.825Z,17.45
2022-09-18T13:28:21.966Z,16.61
2022-09-18T13:31:11.319Z,16.97
2022-09-18T13:33:39.139Z,20.37
2022-09-18T13:36:07.268Z,21.33
2022-09-18T13:38:35.165Z,21.28
2022-09-18T13:41:08.460Z,20.11
2022-09-18T13:43:42.605Z,19.06
2022-09-18T13:46:29.068Z,17.75
2022-09-18T13:48:57.332Z,17.20
2022-09-18T13:51:31.283Z,17.97
2022-09-18T13:54:20.857Z,18.75
2022-09-18T13:57:20.145Z,17.47
2022-09-18T13:59:55.558Z,18.59
2022-09-18T14:02:28.580Z,19.87
2022-09-18T14:05:05.221Z,19.62
2022-09-18T14:07:51.771Z,20.80
2022-09-18T14:10:24.717Z,19.96
2022-09-18T14:13:31.044Z,19.19
2022-09-18T14:16:03.851Z,19.07
2022-09-18T14:18:34.300Z,18.02
2022-09-18T14:21:16.136Z,17.54
2022-09-18T14:24:06.436Z,18.81
2022-09-18T14:26:57.351Z,19.98
2022-09-18T14:29:29.241Z,20.14
2022-09-18T14:31:58.950Z,20.69
2022-09-18T14:34:33.840Z,20.11
2022-09-18T14:37:19.598Z,19.74
2022-09-18T14:39:47.613Z,21.47
2022-09-18T14:42:31.930Z,21.01
2022-09-18T14:45:21.389Z,19.70
2022-09-18T14:47:49.997Z,18.62
2022-09-18T14:50:30.765Z,18.01
2022-09-18T14:53:00.299Z,18.13
2022-09-18T14:55:32.364Z,17.44
2022-09-18T14:58:05.490Z,17.13
2022-09-18T15:00:36.730Z,17.64
2022-09-18T15:03:08.896Z,16.91
2022-09-18T15:05:37.861Z,17.15
2022-09-18T15:08:09.127Z,17.47
2022-09-18T15:10:40.347Z,17.37
2022-09-18T15:13:10.557Z,18.06
2022-09-18T15:15:40.740Z,17.62
2022-09-18T15:18:19.507Z,17.64
2022-09-18T15:20:51.455Z,16.86
2022-09-18T15:23:20.644Z,16.34
2022-09-18T15:25:53.296Z,16.10
2022-09-18T15:28:22.849Z,16.40
2022-09-18T15:30:57.276Z,16.32
2022-09-18T15:33:26.363Z,16.12
2022-09-18T15:35:56.461Z,17.04
2022-09-18T15:38:31.817Z,17.76
2022-09-18T15:40:59.532Z,17.41
2022-09-18T15:43:43.614Z,18.40
2022-09-18T15:46:24.691Z,18.43
2022-09-18T15:48:53.059Z,19.13
2022-09-18T15:51:25.206Z,19.46
2022-09-18T15:54:05.487Z,19.33
2022-09-18T15:56:35.033Z,19.96
2022-09-18T15:59:04.861Z,19.52
2022-09-18T16:01:36.978Z,18.88
2022-09-18T16:04:16.983Z,19.23
2022-09-18T16:06:52.411Z,18.98
2022-09-18T16:09:30.643Z,19.53
2022-09-18T16:12:00.712Z,19.48
2022-09-18T16:15:01.802Z,19.10
2022-09-18T16:17:53.869Z,18.42
2022-09-18T16:20:30.399Z,18.23
2022-09-18T16:23:06.806Z,17.95
2022-09-18T16:25:37.469Z,18.40
2022-09-18T16:28:20.692Z,18.85
2022-09-18T16:30:48.500Z,18.59
2022-09-18T16:33:19.892Z,18.21
2022-09-18T16:35:48.338Z,18.35
2022-09-18T16:38:16.049Z,18.77
2022-09-18T16:40:44.253Z,18.69
2022-09-18T16:43:11.959Z,17.68
2022-09-18T16:45:39.690Z,17.58
2022-09-18T16:48:07.620Z,17.53
2022-09-18T16:50:37.486Z,17.32
2022-09-18T16:53:05.798Z,17.12
2022-09-18T16:55:34.113Z,16.62
2022-09-18T16:58:02.045Z,16.46
2022-09-18T17:00:29.933Z,16.45
2022-09-18T17:02:57.882Z,15.74
2022-09-18T17:05:25.665Z,15.59
2022-09-18T17:07:54.679Z,15.47
2022-09-18T17:10:22.411Z,15.33
2022-09-18T17:12:50.138Z,15.80
2022-09-18T17:15:18.056Z,15.59
2022-09-18T17:17:46.467Z,15.47
2022-09-18T17:20:17.858Z,15.53
2022-09-18T17:22:45.918Z,15.71
2022-09-18T17:25:16.195Z,15.64
2022-09-18T17:27:44.277Z,15.44
2022-09-18T17:30:12.859Z,15.11
2022-09-18T17:32:40.677Z,15.23
2022-09-18T17:35:08.954Z,15.27
2022-09-18T17:37:36.863Z,15.03
2022-09-18T17:40:05.033Z,14.94
2022-09-18T17:42:35.575Z,15.30
2022-09-18T17:45:03.333Z,15.05
2022-09-18T17:47:31.048Z,15.29
2022-09-18T17:49:58.721Z,15.14
2022-09-18T17:52:26.611Z,15.21
2022-09-18T17:54:54.318Z,15.06
2022-09-18T17:57:24.118Z,14.75
2022-09-18T17:59:53.183Z,14.94
2022-09-18T18:02:21.363Z,15.20
2022-09-18T18:04:49.384Z,15.01
2022-09-18T18:07:17.152Z,14.98
2022-09-18T18:09:44.926Z,15.02
2022-09-18T18:12:12.839Z,14.56
2022-09-18T18:14:41.615Z,14.99
2022-09-18T18:17:11.600Z,15.06
2022-09-18T18:19:39.435Z,14.66
2022-09-18T18:22:07.179Z,14.58
2022-09-18T18:24:35.303Z,14.60
2022-09-18T18:27:03.039Z,14.60
2022-09-18T18:29:30.794Z,14.27
2022-09-18T18:32:00.278Z,13.98
2022-09-18T18:34:31.439Z,14.49
2022-09-18T18:37:00.611Z,14.33
2022-09-18T18:39:28.298Z,14.42
2022-09-18T18:41:56.038Z,14.17
2022-09-18T18:44:23.813Z,14.10
2022-09-18T18:46:51.542Z,13.72
2022-09-18T18:49:19.427Z,13.77
2022-09-18T18:51:51.810Z,13.83
2022-09-18T18:54:21.311Z,13.75
2022-09-18T18:56:50.410Z,13.83
2022-09-18T18:59:20.922Z,13.79
2022-09-18T19:01:49.185Z,14.16
2022-09-18T19:04:20.031Z,14.43
2022-09-18T19:06:50.230Z,14.52
2022-09-18T19:09:20.684Z,14.65
2022-09-18T19:11:49.587Z,14.45
2022-09-18T19:14:19.427Z,14.46
2022-09-18T19:16:48.307Z,14.26
2022-09-18T19:19:17.646Z,14.32
2022-09-18T19:21:45.777Z,14.41
2022-09-18T19:24:15.658Z,13.88
2022-09-18T19:26:44.002Z,14.48
2022-09-18T19:29:14.603Z,14.49
2022-09-18T19:31:44.655Z,14.12
2022-09-18T19:34:14.329Z,14.21
2022-09-18T19:36:43.443Z,13.78
2022-09-18T19:39:14.354Z,13.79
2022-09-18T19:41:46.697Z,14.08
2022-09-18T19:44:22.780Z,13.95
2022-09-18T19:46:51.763Z,14.34
2022-09-18T19:49:21.693Z,14.36
2022-09-18T19:51:50.179Z,14.46
2022-09-18T19:54:19.770Z,14.57
2022-09-18T19:56:48.497Z,14.33
2022-09-18T19:59:17.386Z,13.94
2022-09-18T20:01:45.684Z,14.19
2022-09-18T20:04:13.704Z,13.79
2022-09-18T20:06:42.581Z,13.54
2022-09-18T20:09:10.551Z,13.49
2022-09-18T20:11:40.156Z,13.76
2022-09-18T20:14:07.855Z,13.85
2022-09-18T20:16:37.492Z,13.76
2022-09-18T20:19:06.640Z,13.93
2022-09-18T20:21:35.967Z,13.82
2022-09-18T20:24:06.186Z,13.75
2022-09-18T20:26:33.894Z,14.04
2022-09-18T20:29:04.721Z,14.07
2022-09-18T20:31:33.711Z,14.21
2022-09-18T20:34:02.536Z,14.07
2022-09-18T20:36:31.996Z,14.12
2022-09-18T20:39:03.542Z,14.25
2022-09-18T20:41:31.557Z,14.77
2022-09-18T20:44:04.871Z,14.77
2022-09-18T20:46:37.391Z,14.59
2022-09-18T20:49:06.356Z,14.85
2022-09-18T20:51:35.938Z,14.46
2022-09-18T20:54:08.071Z,14.03
2022-09-18T20:56:41.274Z,14.19
2022-09-18T20:59:10.528Z,14.38
2022-09-18T21:01:42.125Z,14.26
2022-09-18T21:04:17.423Z,14.29
2022-09-18T21:06:47.019Z,14.17
2022-09-18T21:09:15.393Z,14.54
2022-09-18T21:11:44.743Z,14.47
2022-09-18T21:14:15.370Z,14.45
2022-09-18T21:16:45.280Z,13.89
2022-09-18T21:19:14.447Z,14.33
2022-09-18T21:21:42.191Z,14.57
2022-09-18T21:24:10.166Z,14.48
2022-09-18T21:26:39.739Z,14.40
2022-09-18T21:29:11.230Z,14.22
2022-09-18T21:31:42.449Z,13.67
2022-09-18T21:34:13.264Z,13.64
2022-09-18T21:36:43.374Z,13.94
2022-09-18T21:39:12.603Z,13.75
2022-09-18T21:41:42.087Z,13.73
2022-09-18T21:44:11.854Z,13.59
2022-09-18T21:46:40.306Z,14.20
2022-09-18T21:49:09.393Z,14.33
2022-09-18T21:51:41.165Z,14.53
2022-09-18T21:54:11.228Z,14.46
2022-09-18T21:56:38.897Z,13.96
2022-09-18T21:59:08.934Z,14.55
2022-09-18T22:01:38.051Z,14.36
2022-09-18T22:04:07.309Z,13.96
2022-09-18T22:06:38.855Z,13.59
2022-09-18T22:09:09.955Z,13.68
2022-09-18T22:11:38.164Z,13.60
2022-09-18T22:14:09.606Z,13.81
2022-09-18T22:16:38.358Z,13.71
2022-09-18T22:19:08.385Z,13.81
2022-09-18T22:21:38.024Z,13.82
2022-09-18T22:24:10.678Z,13.77
2022-09-18T22:26:40.341Z,13.76
2022-09-18T22:29:09.805Z,13.68
2022-09-18T22:31:39.328Z,13.76
2022-09-18T22:34:07.560Z,13.95
2022-09-18T22:36:35.251Z,13.90
2022-09-18T22:39:02.976Z,14.02
2022-09-18T22:41:32.011Z,13.42
2022-09-18T22:43:59.663Z,13.43
2022-09-18T22:46:27.738Z,13.62
2022-09-18T22:48:55.600Z,13.75
2022-09-18T22:51:27.164Z,14.24
2022-09-18T22:53:57.161Z,13.96
2022-09-18T22:56:26.701Z,13.85
2022-09-18T22:58:57.464Z,13.99
2022-09-18T23:01:28.875Z,14.03
2022-09-18T23:03:57.919Z,13.53
2022-09-18T23:06:27.436Z,13.31
2022-09-18T23:08:57.424Z,13.87
2022-09-18T23:11:27.456Z,13.72
2022-09-18T23:13:59.121Z,13.51
2022-09-18T23:16:30.694Z,13.34
2022-09-18T23:19:00.914Z,13.86
2022-09-18T23:21:31.558Z,13.57
2022-09-18T23:24:00.572Z,13.55
2022-09-18T23:26:30.014Z,13.42
2022-09-18T23:29:00.835Z,13.58
2022-09-18T23:31:30.196Z,13.58
2022-09-18T23:33:59.968Z,13.15
2022-09-18T23:36:30.281Z,13.25
2022-09-18T23:39:00.626Z,13.01
2022-09-18T23:41:30.031Z,13.25
2022-09-18T23:43:59.052Z,13.55
2022-09-18T23:46:26.819Z,13.40
2022-09-18T23:48:55.791Z,13.28
2022-09-18T23:51:24.490Z,13.11
2022-09-18T23:53:52.655Z,12.97
2022-09-18T23:56:20.399Z,13.29
2022-09-18T23:58:48.065Z,13.27
